EZY38LT LPPR-EGGW
Flight info
| Callsign | EZY38LT |
|---|---|
| Flight time | 2h 4m |
| Altitude | 36000 |
| Route | TURON P600 ASDEB DCT LOTEE DCT ERCOZ DCT BADUR DCT FEJAC UN585 UPALO UT510 DIKRO UM185 TELTU |
| Aircraft | A320/M-SDE2E3FGHIRWXY/LB1 |
Departure
| Time | 2026-05-07 16:52 |
|---|---|
| Airport | Francisco de Sá Carneiro Airport (LPPR) |
Arrival
| Time | 2026-05-07 18:56 |
|---|---|
| Airport | London Luton Airport (EGGW) |
| Time | Latitude | Longitude | Altitude | Speed | Heading |
|---|---|---|---|---|---|
| 2026-05-07 15:51 | 41.23593 | -8.67219 | 245 ft | 0 kts | 89° |
| 2026-05-07 16:37 | 41.23593 | -8.67223 | 245 ft | 3 kts | 89° |
| 2026-05-07 16:37 | 41.23594 | -8.67251 | 245 ft | 3 kts | 98° |
| 2026-05-07 16:37 | 41.23598 | -8.67279 | 244 ft | 3 kts | 111° |
| 2026-05-07 16:37 | 41.23608 | -8.67304 | 243 ft | 3 kts | 128° |
| 2026-05-07 16:38 | 41.23622 | -8.67324 | 242 ft | 3 kts | 150° |
| 2026-05-07 16:38 | 41.23638 | -8.67333 | 242 ft | 0 kts | 168° |
| 2026-05-07 16:45 | 41.23630 | -8.67331 | 242 ft | 5 kts | 170° |
| 2026-05-07 16:45 | 41.23578 | -8.67344 | 241 ft | 11 kts | 206° |
| 2026-05-07 16:45 | 41.23523 | -8.67384 | 240 ft | 8 kts | 199° |
| 2026-05-07 16:45 | 41.23471 | -8.67382 | 240 ft | 7 kts | 169° |
| 2026-05-07 16:46 | 41.23428 | -8.67372 | 239 ft | 6 kts | 169° |
| 2026-05-07 16:46 | 41.23390 | -8.67362 | 239 ft | 6 kts | 172° |
| 2026-05-07 16:46 | 41.23344 | -8.67394 | 237 ft | 7 kts | 233° |
| 2026-05-07 16:46 | 41.23330 | -8.67454 | 240 ft | 7 kts | 258° |
| 2026-05-07 16:47 | 41.23321 | -8.67512 | 236 ft | 0 kts | 259° |
| 2026-05-07 16:49 | 41.23321 | -8.67513 | 235 ft | 2 kts | 259° |
| 2026-05-07 16:49 | 41.23310 | -8.67585 | 237 ft | 13 kts | 258° |
| 2026-05-07 16:49 | 41.23293 | -8.67690 | 237 ft | 10 kts | 258° |
| 2026-05-07 16:50 | 41.23323 | -8.67736 | 238 ft | 7 kts | 342° |
| 2026-05-07 16:50 | 41.23336 | -8.67739 | 238 ft | 0 kts | 350° |
| 2026-05-07 16:51 | 41.23378 | -8.67749 | 238 ft | 20 kts | 350° |
| 2026-05-07 16:51 | 41.23770 | -8.67853 | 226 ft | 92 kts | 349° |
| 2026-05-07 16:51 | 41.24596 | -8.68072 | 205 ft | 147 kts | 349° |
| 2026-05-07 16:51 | 41.25718 | -8.68371 | 459 ft | 170 kts | 344° |
| 2026-05-07 16:52 | 41.26880 | -8.68674 | 1188 ft | 169 kts | 344° |
| 2026-05-07 16:52 | 41.28032 | -8.68974 | 1955 ft | 169 kts | 344° |
| 2026-05-07 16:52 | 41.29237 | -8.69294 | 2379 ft | 187 kts | 345° |
| 2026-05-07 16:52 | 41.30592 | -8.69656 | 2661 ft | 211 kts | 346° |
| 2026-05-07 16:53 | 41.32118 | -8.70061 | 3033 ft | 236 kts | 346° |
| 2026-05-07 16:53 | 41.33813 | -8.70476 | 3482 ft | 260 kts | 351° |
| 2026-05-07 16:53 | 41.35669 | -8.70297 | 4199 ft | 273 kts | 6° |
| 2026-05-07 16:53 | 41.37569 | -8.69935 | 5028 ft | 279 kts | 7° |
| 2026-05-07 16:54 | 41.39521 | -8.69558 | 5814 ft | 286 kts | 8° |
| 2026-05-07 16:54 | 41.41509 | -8.69172 | 6633 ft | 292 kts | 8° |
| 2026-05-07 16:54 | 41.43533 | -8.68781 | 7423 ft | 296 kts | 8° |
| 2026-05-07 16:54 | 41.45576 | -8.68380 | 8272 ft | 298 kts | 8° |
| 2026-05-07 16:55 | 41.47640 | -8.67974 | 9130 ft | 301 kts | 8° |
| 2026-05-07 16:55 | 41.49722 | -8.67565 | 9937 ft | 304 kts | 8° |
| 2026-05-07 16:55 | 41.51860 | -8.67146 | 10401 ft | 321 kts | 8° |
| 2026-05-07 16:55 | 41.54147 | -8.66700 | 10699 ft | 341 kts | 8° |
| 2026-05-07 16:56 | 41.56524 | -8.66236 | 11329 ft | 348 kts | 8° |
| 2026-05-07 16:56 | 41.58937 | -8.65766 | 12056 ft | 353 kts | 8° |
| 2026-05-07 16:56 | 41.63827 | -8.64810 | 13529 ft | 359 kts | 8° |
| 2026-05-07 16:57 | 41.66311 | -8.64323 | 14182 ft | 362 kts | 8° |
| 2026-05-07 16:57 | 41.68816 | -8.63833 | 14801 ft | 366 kts | 8° |
| 2026-05-07 16:57 | 41.71346 | -8.63337 | 15380 ft | 370 kts | 8° |
| 2026-05-07 16:57 | 41.73903 | -8.62836 | 16021 ft | 372 kts | 8° |
| 2026-05-07 16:58 | 41.76474 | -8.62331 | 16686 ft | 375 kts | 8° |
| 2026-05-07 16:58 | 41.79031 | -8.61827 | 17297 ft | 378 kts | 8° |
| 2026-05-07 16:58 | 41.81670 | -8.61304 | 17970 ft | 379 kts | 8° |
| 2026-05-07 16:58 | 41.84289 | -8.60788 | 18518 ft | 382 kts | 7° |
| 2026-05-07 16:59 | 41.86889 | -8.60277 | 19089 ft | 383 kts | 7° |
| 2026-05-07 16:59 | 41.89530 | -8.59757 | 19676 ft | 384 kts | 7° |
| 2026-05-07 16:59 | 41.92175 | -8.59234 | 20243 ft | 385 kts | 6° |
| 2026-05-07 16:59 | 41.94827 | -8.58709 | 20813 ft | 386 kts | 7° |
| 2026-05-07 17:00 | 41.97487 | -8.58184 | 21337 ft | 387 kts | 7° |
| 2026-05-07 17:00 | 42.00173 | -8.57655 | 21823 ft | 391 kts | 6° |
| 2026-05-07 17:00 | 42.02860 | -8.57124 | 22398 ft | 391 kts | 6° |
| 2026-05-07 17:00 | 42.05556 | -8.56591 | 22925 ft | 392 kts | 6° |
| 2026-05-07 17:01 | 42.08266 | -8.56070 | 23427 ft | 394 kts | 5° |
| 2026-05-07 17:01 | 42.10992 | -8.55606 | 23846 ft | 396 kts | 4° |
| 2026-05-07 17:01 | 42.13731 | -8.55183 | 24232 ft | 398 kts | 4° |
| 2026-05-07 17:01 | 42.16490 | -8.54771 | 24606 ft | 400 kts | 3° |
| 2026-05-07 17:02 | 42.19265 | -8.54353 | 24985 ft | 403 kts | 3° |
| 2026-05-07 17:02 | 42.22057 | -8.53925 | 25349 ft | 405 kts | 3° |
| 2026-05-07 17:02 | 42.24865 | -8.53486 | 25677 ft | 407 kts | 3° |
| 2026-05-07 17:02 | 42.27685 | -8.53037 | 26043 ft | 409 kts | 3° |
| 2026-05-07 17:03 | 42.30523 | -8.52580 | 26392 ft | 412 kts | 3° |
| 2026-05-07 17:03 | 42.33378 | -8.52120 | 26748 ft | 414 kts | 3° |
| 2026-05-07 17:03 | 42.36248 | -8.51656 | 27110 ft | 416 kts | 2° |
| 2026-05-07 17:03 | 42.39129 | -8.51191 | 27465 ft | 419 kts | 2° |
| 2026-05-07 17:04 | 42.42030 | -8.50722 | 27816 ft | 421 kts | 2° |
| 2026-05-07 17:04 | 42.44947 | -8.50254 | 28146 ft | 423 kts | 2° |
| 2026-05-07 17:04 | 42.47874 | -8.49691 | 28481 ft | 428 kts | 8° |
| 2026-05-07 17:04 | 42.50750 | -8.48508 | 28799 ft | 437 kts | 18° |
| 2026-05-07 17:05 | 42.53477 | -8.46615 | 29107 ft | 446 kts | 28° |
| 2026-05-07 17:05 | 42.55968 | -8.44046 | 29423 ft | 454 kts | 37° |
| 2026-05-07 17:05 | 42.58352 | -8.41217 | 29711 ft | 457 kts | 37° |
| 2026-05-07 17:05 | 42.60751 | -8.38372 | 29987 ft | 459 kts | 36° |
| 2026-05-07 17:06 | 42.63161 | -8.35517 | 30233 ft | 461 kts | 36° |
| 2026-05-07 17:06 | 42.65584 | -8.32643 | 30516 ft | 463 kts | 36° |
| 2026-05-07 17:06 | 42.68011 | -8.29764 | 30806 ft | 464 kts | 36° |
| 2026-05-07 17:06 | 42.70445 | -8.26877 | 31058 ft | 465 kts | 36° |
| 2026-05-07 17:07 | 42.72876 | -8.23990 | 31431 ft | 464 kts | 36° |
| 2026-05-07 17:07 | 42.75301 | -8.21102 | 31837 ft | 462 kts | 36° |
| 2026-05-07 17:07 | 42.77711 | -8.18226 | 32202 ft | 461 kts | 36° |
| 2026-05-07 17:07 | 42.80119 | -8.15349 | 32542 ft | 460 kts | 36° |
| 2026-05-07 17:08 | 42.82526 | -8.12469 | 32872 ft | 460 kts | 36° |
| 2026-05-07 17:08 | 42.84930 | -8.09588 | 33204 ft | 460 kts | 36° |
| 2026-05-07 17:08 | 42.87329 | -8.06710 | 33525 ft | 460 kts | 36° |
| 2026-05-07 17:08 | 42.89731 | -8.03830 | 33863 ft | 460 kts | 35° |
| 2026-05-07 17:09 | 42.92132 | -8.00949 | 34131 ft | 460 kts | 36° |
| 2026-05-07 17:09 | 42.94533 | -7.98066 | 34376 ft | 460 kts | 36° |
| 2026-05-07 17:09 | 42.96933 | -7.95182 | 34639 ft | 460 kts | 36° |
| 2026-05-07 17:09 | 42.99333 | -7.92291 | 34898 ft | 460 kts | 36° |
| 2026-05-07 17:10 | 43.01733 | -7.89397 | 35131 ft | 460 kts | 36° |
| 2026-05-07 17:10 | 43.04134 | -7.86498 | 35347 ft | 460 kts | 36° |
| 2026-05-07 17:10 | 43.06536 | -7.83600 | 35568 ft | 461 kts | 36° |
| 2026-05-07 17:10 | 43.08938 | -7.80701 | 35779 ft | 461 kts | 36° |
| 2026-05-07 17:11 | 43.13731 | -7.74895 | 35880 ft | 458 kts | 36° |
| 2026-05-07 17:11 | 43.18454 | -7.69160 | 35890 ft | 456 kts | 37° |
| 2026-05-07 17:12 | 43.23194 | -7.63395 | 35878 ft | 455 kts | 37° |
| 2026-05-07 17:12 | 43.27924 | -7.57639 | 35882 ft | 453 kts | 37° |
| 2026-05-07 17:13 | 43.32628 | -7.51885 | 35886 ft | 452 kts | 37° |
| 2026-05-07 17:13 | 43.37324 | -7.46131 | 35886 ft | 452 kts | 37° |
| 2026-05-07 17:14 | 43.42022 | -7.40374 | 35900 ft | 452 kts | 37° |
| 2026-05-07 17:14 | 43.46707 | -7.34609 | 35897 ft | 452 kts | 37° |
| 2026-05-07 17:15 | 43.51382 | -7.28835 | 35897 ft | 452 kts | 37° |
| 2026-05-07 17:15 | 43.56060 | -7.23057 | 35898 ft | 451 kts | 37° |
| 2026-05-07 17:16 | 43.60734 | -7.17286 | 35930 ft | 451 kts | 37° |
| 2026-05-07 17:16 | 43.65397 | -7.11507 | 35924 ft | 450 kts | 38° |
| 2026-05-07 17:17 | 43.70040 | -7.05732 | 35916 ft | 449 kts | 38° |
| 2026-05-07 17:17 | 43.74679 | -6.99951 | 35911 ft | 449 kts | 38° |
| 2026-05-07 17:18 | 43.79306 | -6.94167 | 35904 ft | 448 kts | 38° |
| 2026-05-07 17:18 | 43.83933 | -6.88374 | 35910 ft | 448 kts | 38° |
| 2026-05-07 17:19 | 43.88556 | -6.82587 | 35915 ft | 448 kts | 38° |
| 2026-05-07 17:19 | 43.93174 | -6.76782 | 35899 ft | 448 kts | 38° |
| 2026-05-07 17:20 | 43.97788 | -6.70965 | 35894 ft | 448 kts | 38° |
| 2026-05-07 17:20 | 44.02400 | -6.65145 | 35896 ft | 448 kts | 38° |
| 2026-05-07 17:21 | 44.07016 | -6.59315 | 35907 ft | 448 kts | 38° |
| 2026-05-07 17:21 | 44.11621 | -6.53459 | 35906 ft | 449 kts | 38° |
| 2026-05-07 17:22 | 44.16233 | -6.47594 | 35914 ft | 449 kts | 38° |
| 2026-05-07 17:22 | 44.20847 | -6.41734 | 35923 ft | 449 kts | 39° |
| 2026-05-07 17:23 | 44.25430 | -6.35896 | 35938 ft | 449 kts | 39° |
| 2026-05-07 17:23 | 44.30032 | -6.30001 | 35931 ft | 449 kts | 39° |
| 2026-05-07 17:24 | 44.34634 | -6.24097 | 35928 ft | 449 kts | 39° |
| 2026-05-07 17:24 | 44.39229 | -6.18190 | 35929 ft | 449 kts | 39° |
| 2026-05-07 17:25 | 44.43822 | -6.12275 | 35924 ft | 449 kts | 39° |
| 2026-05-07 17:25 | 44.48413 | -6.06356 | 35939 ft | 449 kts | 39° |
| 2026-05-07 17:26 | 44.52998 | -6.00426 | 35933 ft | 449 kts | 40° |
| 2026-05-07 17:26 | 44.57577 | -5.94487 | 35929 ft | 448 kts | 40° |
| 2026-05-07 17:27 | 44.61379 | -5.89548 | 35922 ft | 448 kts | 40° |
| 2026-05-07 17:27 | 44.67049 | -5.83249 | 35926 ft | 442 kts | 25° |
| 2026-05-07 17:28 | 44.71696 | -5.80394 | 35923 ft | 438 kts | 18° |
| 2026-05-07 17:28 | 44.77350 | -5.77205 | 35920 ft | 438 kts | 18° |
| 2026-05-07 17:29 | 44.83002 | -5.73977 | 35919 ft | 438 kts | 19° |
| 2026-05-07 17:29 | 44.88652 | -5.70734 | 35939 ft | 439 kts | 19° |
| 2026-05-07 17:30 | 44.94310 | -5.67498 | 35938 ft | 439 kts | 19° |
| 2026-05-07 17:30 | 44.99971 | -5.64274 | 35934 ft | 439 kts | 19° |
| 2026-05-07 17:31 | 45.05630 | -5.61031 | 35946 ft | 439 kts | 19° |
| 2026-05-07 17:31 | 45.11288 | -5.57773 | 35944 ft | 439 kts | 19° |
| 2026-05-07 17:32 | 45.16944 | -5.54520 | 35941 ft | 439 kts | 19° |
| 2026-05-07 17:32 | 45.22599 | -5.51261 | 35940 ft | 439 kts | 19° |
| 2026-05-07 17:33 | 45.28248 | -5.47981 | 35950 ft | 439 kts | 19° |
| 2026-05-07 17:33 | 45.33863 | -5.44728 | 35945 ft | 439 kts | 19° |
| 2026-05-07 17:34 | 45.39515 | -5.41452 | 35954 ft | 439 kts | 19° |
| 2026-05-07 17:34 | 45.45171 | -5.38160 | 35953 ft | 439 kts | 19° |
| 2026-05-07 17:35 | 45.50831 | -5.34857 | 35961 ft | 440 kts | 19° |
| 2026-05-07 17:35 | 45.56490 | -5.31550 | 35960 ft | 440 kts | 19° |
| 2026-05-07 17:36 | 45.62151 | -5.28235 | 35958 ft | 440 kts | 19° |
| 2026-05-07 17:36 | 45.67803 | -5.24904 | 35969 ft | 440 kts | 19° |
| 2026-05-07 17:37 | 45.73464 | -5.21587 | 35961 ft | 439 kts | 19° |
| 2026-05-07 17:37 | 45.79124 | -5.18262 | 35959 ft | 440 kts | 19° |
| 2026-05-07 17:38 | 45.84775 | -5.14913 | 35959 ft | 440 kts | 19° |
| 2026-05-07 17:38 | 45.90429 | -5.11547 | 35970 ft | 440 kts | 20° |
| 2026-05-07 17:39 | 45.96086 | -5.08192 | 35957 ft | 440 kts | 20° |
| 2026-05-07 17:39 | 46.01712 | -5.04847 | 35959 ft | 441 kts | 20° |
| 2026-05-07 17:40 | 46.07377 | -5.01471 | 35965 ft | 441 kts | 20° |
| 2026-05-07 17:40 | 46.13048 | -4.98079 | 35969 ft | 441 kts | 20° |
| 2026-05-07 17:41 | 46.18716 | -4.94689 | 35969 ft | 441 kts | 20° |
| 2026-05-07 17:41 | 46.24384 | -4.91278 | 35969 ft | 441 kts | 20° |
| 2026-05-07 17:42 | 46.30046 | -4.87859 | 35971 ft | 441 kts | 20° |
| 2026-05-07 17:42 | 46.35719 | -4.84453 | 35966 ft | 441 kts | 20° |
| 2026-05-07 17:43 | 46.41387 | -4.81021 | 35966 ft | 442 kts | 20° |
| 2026-05-07 17:43 | 46.47060 | -4.77594 | 35973 ft | 442 kts | 20° |
| 2026-05-07 17:44 | 46.52743 | -4.74151 | 35963 ft | 443 kts | 20° |
| 2026-05-07 17:44 | 46.58426 | -4.70680 | 35963 ft | 443 kts | 20° |
| 2026-05-07 17:45 | 46.64122 | -4.67212 | 35967 ft | 444 kts | 20° |
| 2026-05-07 17:45 | 46.69818 | -4.63735 | 35970 ft | 444 kts | 20° |
| 2026-05-07 17:46 | 46.75517 | -4.60236 | 35971 ft | 445 kts | 20° |
| 2026-05-07 17:46 | 46.81221 | -4.56735 | 35976 ft | 445 kts | 20° |
| 2026-05-07 17:47 | 46.86924 | -4.53228 | 35977 ft | 445 kts | 20° |
| 2026-05-07 17:47 | 46.92632 | -4.49709 | 35988 ft | 445 kts | 20° |
| 2026-05-07 17:48 | 46.98342 | -4.46172 | 35988 ft | 446 kts | 20° |
| 2026-05-07 17:48 | 47.04013 | -4.42653 | 35990 ft | 446 kts | 20° |
| 2026-05-07 17:49 | 47.09721 | -4.39108 | 35997 ft | 446 kts | 21° |
| 2026-05-07 17:49 | 47.15435 | -4.35551 | 35991 ft | 446 kts | 20° |
| 2026-05-07 17:50 | 47.21146 | -4.31999 | 35985 ft | 446 kts | 20° |
| 2026-05-07 17:50 | 47.26856 | -4.28425 | 35978 ft | 446 kts | 21° |
| 2026-05-07 17:51 | 47.32559 | -4.24838 | 35983 ft | 446 kts | 21° |
| 2026-05-07 17:51 | 47.38273 | -4.21246 | 35979 ft | 447 kts | 21° |
| 2026-05-07 17:52 | 47.43990 | -4.17645 | 35983 ft | 447 kts | 21° |
| 2026-05-07 17:52 | 47.49718 | -4.14034 | 35981 ft | 448 kts | 21° |
| 2026-05-07 17:53 | 47.55449 | -4.10404 | 35985 ft | 449 kts | 21° |
| 2026-05-07 17:53 | 47.61195 | -4.06758 | 35981 ft | 449 kts | 21° |
| 2026-05-07 17:54 | 47.66906 | -4.03124 | 35987 ft | 450 kts | 21° |
| 2026-05-07 17:54 | 47.72667 | -3.99456 | 35988 ft | 451 kts | 21° |
| 2026-05-07 17:55 | 47.78429 | -3.95771 | 35987 ft | 451 kts | 21° |
| 2026-05-07 17:55 | 47.84188 | -3.92074 | 35991 ft | 451 kts | 21° |
| 2026-05-07 17:56 | 47.89949 | -3.88363 | 35995 ft | 451 kts | 21° |
| 2026-05-07 17:56 | 47.95715 | -3.84646 | 36013 ft | 451 kts | 21° |
| 2026-05-07 17:57 | 48.00507 | -3.81556 | 35998 ft | 452 kts | 22° |
| 2026-05-07 17:57 | 48.07254 | -3.77195 | 35984 ft | 452 kts | 22° |
| 2026-05-07 17:58 | 48.13029 | -3.73450 | 35981 ft | 452 kts | 22° |
| 2026-05-07 17:58 | 48.18805 | -3.69697 | 35985 ft | 453 kts | 22° |
| 2026-05-07 17:59 | 48.24589 | -3.65929 | 35983 ft | 453 kts | 22° |
| 2026-05-07 17:59 | 48.30353 | -3.62091 | 35982 ft | 454 kts | 27° |
| 2026-05-07 18:00 | 48.35434 | -3.56489 | 35976 ft | 455 kts | 45° |
| 2026-05-07 18:00 | 48.39641 | -3.49373 | 35985 ft | 456 kts | 49° |
| 2026-05-07 18:01 | 48.43836 | -3.42208 | 35967 ft | 456 kts | 49° |
| 2026-05-07 18:01 | 48.48030 | -3.35035 | 35969 ft | 456 kts | 49° |
| 2026-05-07 18:02 | 48.54310 | -3.24232 | 35974 ft | 456 kts | 49° |
| 2026-05-07 18:03 | 48.58485 | -3.17018 | 35978 ft | 456 kts | 49° |
| 2026-05-07 18:03 | 48.62660 | -3.09787 | 35991 ft | 457 kts | 49° |
| 2026-05-07 18:04 | 48.66829 | -3.02543 | 35974 ft | 457 kts | 49° |
| 2026-05-07 18:04 | 48.70566 | -2.94813 | 35979 ft | 455 kts | 64° |
| 2026-05-07 18:05 | 48.72660 | -2.85895 | 35979 ft | 453 kts | 77° |
| 2026-05-07 18:05 | 48.74236 | -2.76663 | 35974 ft | 453 kts | 77° |
| 2026-05-07 18:06 | 48.75813 | -2.67417 | 35974 ft | 453 kts | 77° |
| 2026-05-07 18:06 | 48.77375 | -2.58162 | 35968 ft | 454 kts | 77° |
| 2026-05-07 18:07 | 48.78940 | -2.48894 | 35970 ft | 454 kts | 77° |
| 2026-05-07 18:07 | 48.80495 | -2.39620 | 35984 ft | 454 kts | 77° |
| 2026-05-07 18:08 | 48.82040 | -2.30330 | 35991 ft | 454 kts | 77° |
| 2026-05-07 18:08 | 48.83578 | -2.21033 | 35992 ft | 454 kts | 77° |
| 2026-05-07 18:09 | 48.85108 | -2.11736 | 35987 ft | 454 kts | 77° |
| 2026-05-07 18:09 | 48.86631 | -2.02430 | 35995 ft | 454 kts | 77° |
| 2026-05-07 18:10 | 48.88133 | -1.93189 | 35998 ft | 454 kts | 77° |
| 2026-05-07 18:10 | 48.89708 | -1.83907 | 35995 ft | 454 kts | 71° |
| 2026-05-07 18:11 | 48.92726 | -1.75510 | 36003 ft | 455 kts | 50° |
| 2026-05-07 18:11 | 48.97451 | -1.69194 | 35988 ft | 453 kts | 30° |
| 2026-05-07 18:12 | 49.02826 | -1.64167 | 35984 ft | 454 kts | 31° |
| 2026-05-07 18:12 | 49.08197 | -1.59088 | 36004 ft | 454 kts | 31° |
| 2026-05-07 18:13 | 49.13568 | -1.54009 | 36008 ft | 454 kts | 31° |
| 2026-05-07 18:13 | 49.18943 | -1.48928 | 36002 ft | 454 kts | 31° |
| 2026-05-07 18:14 | 49.24312 | -1.43835 | 36005 ft | 454 kts | 31° |
| 2026-05-07 18:14 | 49.29681 | -1.38720 | 36017 ft | 455 kts | 31° |
| 2026-05-07 18:15 | 49.35053 | -1.33596 | 36026 ft | 455 kts | 31° |
| 2026-05-07 18:15 | 49.40422 | -1.28465 | 36016 ft | 455 kts | 31° |
| 2026-05-07 18:16 | 49.45788 | -1.23310 | 36025 ft | 455 kts | 31° |
| 2026-05-07 18:16 | 49.51117 | -1.18190 | 36026 ft | 455 kts | 31° |
| 2026-05-07 18:17 | 49.56480 | -1.13024 | 36035 ft | 455 kts | 31° |
| 2026-05-07 18:17 | 49.61627 | -1.07372 | 36028 ft | 455 kts | 37° |
| 2026-05-07 18:18 | 49.66644 | -1.01419 | 36032 ft | 455 kts | 37° |
| 2026-05-07 18:18 | 49.71672 | -0.95446 | 35618 ft | 462 kts | 37° |
| 2026-05-07 18:18 | 49.74299 | -0.92553 | 34889 ft | 464 kts | 28° |
| 2026-05-07 18:19 | 49.76235 | -0.91180 | 34508 ft | 461 kts | 17° |
| 2026-05-07 18:19 | 49.79340 | -0.90159 | 34004 ft | 454 kts | 4° |
| 2026-05-07 18:19 | 49.82475 | -0.89697 | 33447 ft | 451 kts | 3° |
| 2026-05-07 18:19 | 49.85583 | -0.89255 | 32901 ft | 447 kts | 3° |
| 2026-05-07 18:20 | 49.88670 | -0.88825 | 32369 ft | 444 kts | 3° |
| 2026-05-07 18:20 | 49.91733 | -0.88403 | 31844 ft | 440 kts | 3° |
| 2026-05-07 18:20 | 49.94769 | -0.87982 | 31329 ft | 436 kts | 3° |
| 2026-05-07 18:20 | 49.97775 | -0.87559 | 30954 ft | 432 kts | 3° |
| 2026-05-07 18:21 | 50.00759 | -0.87135 | 30607 ft | 429 kts | 3° |
| 2026-05-07 18:21 | 50.03725 | -0.86712 | 30258 ft | 427 kts | 3° |
| 2026-05-07 18:21 | 50.06673 | -0.86288 | 29884 ft | 424 kts | 3° |
| 2026-05-07 18:21 | 50.09604 | -0.85865 | 29478 ft | 422 kts | 3° |
| 2026-05-07 18:22 | 50.12513 | -0.85446 | 29079 ft | 419 kts | 3° |
| 2026-05-07 18:22 | 50.14473 | -0.85165 | 28810 ft | 417 kts | 3° |
| 2026-05-07 18:22 | 50.18288 | -0.84619 | 28296 ft | 414 kts | 3° |
| 2026-05-07 18:22 | 50.21149 | -0.84208 | 27921 ft | 411 kts | 3° |
| 2026-05-07 18:23 | 50.24036 | -0.83797 | 27547 ft | 428 kts | 3° |
| 2026-05-07 18:23 | 50.27082 | -0.83367 | 27089 ft | 451 kts | 3° |
| 2026-05-07 18:23 | 50.30246 | -0.82919 | 26617 ft | 460 kts | 4° |
| 2026-05-07 18:23 | 50.33438 | -0.82462 | 26154 ft | 460 kts | 4° |
| 2026-05-07 18:24 | 50.36623 | -0.82000 | 25702 ft | 458 kts | 4° |
| 2026-05-07 18:24 | 50.39789 | -0.81538 | 25255 ft | 456 kts | 4° |
| 2026-05-07 18:24 | 50.42933 | -0.81079 | 24820 ft | 453 kts | 4° |
| 2026-05-07 18:24 | 50.46061 | -0.80625 | 24388 ft | 450 kts | 4° |
| 2026-05-07 18:25 | 50.49168 | -0.80174 | 23961 ft | 447 kts | 4° |
| 2026-05-07 18:25 | 50.52259 | -0.79723 | 23526 ft | 445 kts | 4° |
| 2026-05-07 18:25 | 50.55329 | -0.79273 | 23022 ft | 442 kts | 4° |
| 2026-05-07 18:25 | 50.58380 | -0.78827 | 22528 ft | 439 kts | 4° |
| 2026-05-07 18:26 | 50.61410 | -0.78385 | 22045 ft | 435 kts | 4° |
| 2026-05-07 18:26 | 50.64415 | -0.77947 | 21568 ft | 432 kts | 4° |
| 2026-05-07 18:26 | 50.67394 | -0.77511 | 21105 ft | 429 kts | 4° |
| 2026-05-07 18:26 | 50.70353 | -0.77078 | 20645 ft | 425 kts | 4° |
| 2026-05-07 18:27 | 50.73292 | -0.76646 | 20190 ft | 423 kts | 4° |
| 2026-05-07 18:27 | 50.76210 | -0.76215 | 19739 ft | 420 kts | 4° |
| 2026-05-07 18:27 | 50.79109 | -0.75786 | 19301 ft | 417 kts | 4° |
| 2026-05-07 18:27 | 50.81944 | -0.74900 | 19045 ft | 417 kts | 17° |
| 2026-05-07 18:28 | 50.84646 | -0.73220 | 19053 ft | 418 kts | 21° |
| 2026-05-07 18:28 | 50.87316 | -0.71508 | 19057 ft | 418 kts | 21° |
| 2026-05-07 18:28 | 50.90037 | -0.69758 | 19057 ft | 418 kts | 21° |
| 2026-05-07 18:28 | 50.92727 | -0.68024 | 19057 ft | 418 kts | 21° |
| 2026-05-07 18:29 | 50.95422 | -0.66286 | 19058 ft | 418 kts | 21° |
| 2026-05-07 18:29 | 50.98114 | -0.64549 | 19052 ft | 418 kts | 21° |
| 2026-05-07 18:29 | 51.00807 | -0.62805 | 19052 ft | 418 kts | 21° |
| 2026-05-07 18:29 | 51.03497 | -0.61055 | 19052 ft | 418 kts | 21° |
| 2026-05-07 18:30 | 51.06150 | -0.59327 | 19057 ft | 418 kts | 21° |
| 2026-05-07 18:30 | 51.08839 | -0.57578 | 19053 ft | 418 kts | 21° |
| 2026-05-07 18:30 | 51.11532 | -0.55828 | 19057 ft | 418 kts | 21° |
| 2026-05-07 18:30 | 51.14223 | -0.54074 | 19057 ft | 418 kts | 21° |
| 2026-05-07 18:31 | 51.16914 | -0.52318 | 19056 ft | 418 kts | 21° |
| 2026-05-07 18:31 | 51.19604 | -0.50564 | 19056 ft | 418 kts | 21° |
| 2026-05-07 18:31 | 51.22296 | -0.48807 | 19056 ft | 418 kts | 21° |
| 2026-05-07 18:31 | 51.24985 | -0.47048 | 19052 ft | 418 kts | 21° |
| 2026-05-07 18:32 | 51.27678 | -0.45283 | 18603 ft | 418 kts | 21° |
| 2026-05-07 18:32 | 51.30351 | -0.43527 | 17474 ft | 412 kts | 21° |
| 2026-05-07 18:32 | 51.32976 | -0.41803 | 17257 ft | 409 kts | 21° |
| 2026-05-07 18:32 | 51.35601 | -0.40078 | 17103 ft | 407 kts | 21° |
| 2026-05-07 18:33 | 51.38215 | -0.38355 | 16948 ft | 406 kts | 21° |
| 2026-05-07 18:33 | 51.40821 | -0.36633 | 16790 ft | 405 kts | 21° |
| 2026-05-07 18:33 | 51.43423 | -0.34908 | 16633 ft | 404 kts | 22° |
| 2026-05-07 18:33 | 51.45999 | -0.33100 | 16477 ft | 404 kts | 24° |
| 2026-05-07 18:34 | 51.48537 | -0.31190 | 16323 ft | 403 kts | 25° |
| 2026-05-07 18:34 | 51.51056 | -0.29225 | 16165 ft | 402 kts | 25° |
| 2026-05-07 18:34 | 51.53565 | -0.27245 | 16013 ft | 401 kts | 25° |
| 2026-05-07 18:34 | 51.56069 | -0.25276 | 15863 ft | 400 kts | 25° |
| 2026-05-07 18:35 | 51.58571 | -0.23322 | 15717 ft | 399 kts | 25° |
| 2026-05-07 18:35 | 51.61072 | -0.21387 | 15591 ft | 399 kts | 25° |
| 2026-05-07 18:35 | 51.63572 | -0.19463 | 15447 ft | 398 kts | 25° |
| 2026-05-07 18:35 | 51.66066 | -0.17547 | 15326 ft | 397 kts | 25° |
| 2026-05-07 18:36 | 51.68560 | -0.15634 | 15174 ft | 396 kts | 25° |
| 2026-05-07 18:36 | 51.71048 | -0.13721 | 15032 ft | 396 kts | 25° |
| 2026-05-07 18:36 | 51.73492 | -0.11819 | 14885 ft | 381 kts | 27° |
| 2026-05-07 18:36 | 51.75576 | -0.09559 | 14769 ft | 353 kts | 41° |
| 2026-05-07 18:37 | 51.77251 | -0.06851 | 14664 ft | 331 kts | 46° |
| 2026-05-07 18:37 | 51.78824 | -0.04212 | 14562 ft | 323 kts | 46° |
| 2026-05-07 18:37 | 51.80380 | -0.01608 | 14461 ft | 321 kts | 46° |
| 2026-05-07 18:37 | 51.81930 | 0.00988 | 14364 ft | 320 kts | 47° |
| 2026-05-07 18:38 | 51.83475 | 0.03582 | 14102 ft | 321 kts | 47° |
| 2026-05-07 18:38 | 51.85017 | 0.06176 | 13450 ft | 318 kts | 47° |
| 2026-05-07 18:38 | 51.86541 | 0.08745 | 12790 ft | 315 kts | 47° |
| 2026-05-07 18:38 | 51.88051 | 0.11296 | 12137 ft | 312 kts | 47° |
| 2026-05-07 18:39 | 51.89547 | 0.13825 | 11492 ft | 309 kts | 47° |
| 2026-05-07 18:39 | 51.91088 | 0.16208 | 10953 ft | 303 kts | 35° |
| 2026-05-07 18:39 | 51.92933 | 0.17691 | 10688 ft | 294 kts | 14° |
| 2026-05-07 18:39 | 51.94933 | 0.18036 | 10414 ft | 288 kts | 353° |
| 2026-05-07 18:40 | 51.96840 | 0.17219 | 10148 ft | 283 kts | 332° |
| 2026-05-07 18:40 | 51.98434 | 0.15404 | 9871 ft | 279 kts | 311° |
| 2026-05-07 18:40 | 51.99549 | 0.12897 | 9544 ft | 273 kts | 297° |
| 2026-05-07 18:40 | 52.00493 | 0.10226 | 9236 ft | 272 kts | 297° |
| 2026-05-07 18:41 | 52.01435 | 0.07576 | 8909 ft | 270 kts | 298° |
| 2026-05-07 18:41 | 52.02376 | 0.04949 | 8592 ft | 269 kts | 298° |
| 2026-05-07 18:41 | 52.03311 | 0.02342 | 8276 ft | 265 kts | 298° |
| 2026-05-07 18:41 | 52.04231 | -0.00231 | 7956 ft | 262 kts | 298° |
| 2026-05-07 18:42 | 52.05142 | -0.02792 | 7641 ft | 262 kts | 298° |
| 2026-05-07 18:42 | 52.06053 | -0.05356 | 7335 ft | 262 kts | 298° |
| 2026-05-07 18:42 | 52.06960 | -0.07908 | 7037 ft | 260 kts | 299° |
| 2026-05-07 18:42 | 52.07862 | -0.10445 | 6733 ft | 258 kts | 299° |
| 2026-05-07 18:43 | 52.08689 | -0.13019 | 6440 ft | 256 kts | 288° |
| 2026-05-07 18:43 | 52.09013 | -0.15828 | 6122 ft | 253 kts | 269° |
| 2026-05-07 18:43 | 52.08746 | -0.18633 | 5995 ft | 252 kts | 250° |
| 2026-05-07 18:43 | 52.07937 | -0.21158 | 6004 ft | 253 kts | 232° |
| 2026-05-07 18:44 | 52.06778 | -0.23317 | 6007 ft | 254 kts | 228° |
| 2026-05-07 18:44 | 52.05599 | -0.25461 | 6006 ft | 254 kts | 228° |
| 2026-05-07 18:44 | 52.04421 | -0.27605 | 5987 ft | 255 kts | 228° |
| 2026-05-07 18:44 | 52.03246 | -0.29749 | 5850 ft | 254 kts | 228° |
| 2026-05-07 18:45 | 52.02073 | -0.31883 | 5727 ft | 253 kts | 228° |
| 2026-05-07 18:45 | 52.00899 | -0.34018 | 5597 ft | 253 kts | 228° |
| 2026-05-07 18:45 | 51.99855 | -0.36308 | 5462 ft | 254 kts | 241° |
| 2026-05-07 18:45 | 51.99201 | -0.38962 | 5337 ft | 254 kts | 253° |
| 2026-05-07 18:46 | 51.98708 | -0.41705 | 5204 ft | 253 kts | 253° |
| 2026-05-07 18:46 | 51.98136 | -0.44404 | 5078 ft | 252 kts | 243° |
| 2026-05-07 18:46 | 51.97222 | -0.46771 | 4956 ft | 251 kts | 230° |
| 2026-05-07 18:46 | 51.96133 | -0.48983 | 4819 ft | 251 kts | 230° |
| 2026-05-07 18:47 | 51.95051 | -0.51199 | 4698 ft | 251 kts | 231° |
| 2026-05-07 18:47 | 51.93970 | -0.53419 | 4564 ft | 251 kts | 231° |
| 2026-05-07 18:47 | 51.92896 | -0.55628 | 4427 ft | 245 kts | 231° |
| 2026-05-07 18:47 | 51.91870 | -0.57741 | 4295 ft | 233 kts | 231° |
| 2026-05-07 18:48 | 51.90890 | -0.59762 | 4169 ft | 224 kts | 231° |
| 2026-05-07 18:48 | 51.90095 | -0.61882 | 4035 ft | 220 kts | 245° |
| 2026-05-07 18:48 | 51.89606 | -0.64219 | 3907 ft | 219 kts | 253° |
| 2026-05-07 18:48 | 51.89198 | -0.66575 | 3776 ft | 214 kts | 253° |
| 2026-05-07 18:49 | 51.88800 | -0.68858 | 3647 ft | 208 kts | 253° |
| 2026-05-07 18:49 | 51.88416 | -0.71057 | 3512 ft | 199 kts | 253° |
| 2026-05-07 18:49 | 51.88035 | -0.73187 | 3387 ft | 195 kts | 248° |
| 2026-05-07 18:49 | 51.87260 | -0.74887 | 3259 ft | 190 kts | 211° |
| 2026-05-07 18:50 | 51.86023 | -0.75459 | 3155 ft | 187 kts | 176° |
| 2026-05-07 18:50 | 51.84805 | -0.74796 | 3071 ft | 186 kts | 155° |
| 2026-05-07 18:50 | 51.83611 | -0.74001 | 3000 ft | 185 kts | 153° |
| 2026-05-07 18:50 | 51.82602 | -0.72696 | 3001 ft | 188 kts | 130° |
| 2026-05-07 18:51 | 51.81995 | -0.70826 | 3007 ft | 190 kts | 107° |
| 2026-05-07 18:51 | 51.81919 | -0.68690 | 3007 ft | 193 kts | 82° |
| 2026-05-07 18:51 | 51.82251 | -0.66675 | 3009 ft | 177 kts | 76° |
| 2026-05-07 18:51 | 51.82585 | -0.64797 | 3002 ft | 171 kts | 76° |
| 2026-05-07 18:52 | 51.82909 | -0.62957 | 3008 ft | 169 kts | 76° |
| 2026-05-07 18:52 | 51.83229 | -0.61134 | 3007 ft | 168 kts | 76° |
| 2026-05-07 18:52 | 51.83548 | -0.59316 | 3005 ft | 168 kts | 76° |
| 2026-05-07 18:52 | 51.83868 | -0.57493 | 2930 ft | 168 kts | 75° |
| 2026-05-07 18:53 | 51.84186 | -0.55676 | 2758 ft | 167 kts | 76° |
| 2026-05-07 18:53 | 51.84502 | -0.53870 | 2549 ft | 167 kts | 76° |
| 2026-05-07 18:53 | 51.84816 | -0.52074 | 2326 ft | 166 kts | 76° |
| 2026-05-07 18:53 | 51.85128 | -0.50285 | 2102 ft | 165 kts | 76° |
| 2026-05-07 18:54 | 51.85435 | -0.48528 | 1898 ft | 156 kts | 76° |
| 2026-05-07 18:54 | 51.85714 | -0.46930 | 1676 ft | 145 kts | 76° |
| 2026-05-07 18:54 | 51.85986 | -0.45365 | 1478 ft | 141 kts | 77° |
| 2026-05-07 18:54 | 51.86248 | -0.43857 | 1277 ft | 138 kts | 76° |
| 2026-05-07 18:55 | 51.86505 | -0.42376 | 1086 ft | 135 kts | 77° |
| 2026-05-07 18:55 | 51.86755 | -0.40937 | 910 ft | 135 kts | 76° |
| 2026-05-07 18:55 | 51.87002 | -0.39492 | 718 ft | 132 kts | 76° |
| 2026-05-07 18:55 | 51.87255 | -0.38053 | 544 ft | 132 kts | 76° |
| 2026-05-07 18:56 | 51.87471 | -0.36796 | 524 ft | 82 kts | 74° |
| 2026-05-07 18:56 | 51.87563 | -0.36260 | 520 ft | 38 kts | 75° |
| 2026-05-07 18:56 | 51.87612 | -0.35975 | 516 ft | 15 kts | 68° |
| 2026-05-07 18:56 | 51.87677 | -0.35922 | 516 ft | 7 kts | 351° |
| 2026-05-07 18:57 | 51.87725 | -0.35944 | 516 ft | 8 kts | 343° |
| 2026-05-07 18:57 | 51.87781 | -0.36019 | 517 ft | 9 kts | 291° |
| 2026-05-07 18:57 | 51.87777 | -0.36116 | 518 ft | 13 kts | 255° |
| 2026-05-07 18:57 | 51.87748 | -0.36289 | 518 ft | 16 kts | 254° |
| 2026-05-07 18:58 | 51.87717 | -0.36463 | 519 ft | 16 kts | 254° |
| 2026-05-07 18:58 | 51.87685 | -0.36646 | 521 ft | 18 kts | 255° |
| 2026-05-07 18:58 | 51.87662 | -0.36799 | 524 ft | 11 kts | 269° |
| 2026-05-07 18:58 | 51.87730 | -0.36880 | 519 ft | 16 kts | 341° |
| 2026-05-07 18:59 | 51.87860 | -0.36950 | 512 ft | 23 kts | 342° |
| 2026-05-07 18:59 | 51.87971 | -0.37008 | 512 ft | 11 kts | 341° |
| 2026-05-07 18:59 | 51.88016 | -0.37088 | 510 ft | 11 kts | 300° |
| 2026-05-07 18:59 | 51.88043 | -0.37196 | 508 ft | 8 kts | 267° |
| 2026-05-07 19:00 | 51.88031 | -0.37265 | 508 ft | 6 kts | 252° |
| 2026-05-07 19:00 | 51.88001 | -0.37281 | 508 ft | 5 kts | 173° |
| 2026-05-07 19:00 | 51.87978 | -0.37270 | 508 ft | 2 kts | 161° |
| 2026-05-07 19:00 | 51.87965 | -0.37263 | 508 ft | 1 kts | 162° |